createdAt,value
2022-08-23T00:02:26.618Z,57.05
2022-08-23T00:05:07.580Z,57.20
2022-08-23T00:07:41.183Z,57.24
2022-08-23T00:10:14.086Z,57.07
2022-08-23T00:12:42.898Z,56.96
2022-08-23T00:15:11.929Z,57.25
2022-08-23T00:17:39.146Z,57.07
2022-08-23T00:20:08.011Z,57.05
2022-08-23T00:22:34.683Z,57.47
2022-08-23T00:25:01.199Z,56.99
2022-08-23T00:27:28.531Z,56.89
2022-08-23T00:29:57.239Z,57.16
2022-08-23T00:32:28.729Z,57.28
2022-08-23T00:34:55.870Z,56.97
2022-08-23T00:37:23.182Z,56.72
2022-08-23T00:39:49.762Z,56.76
2022-08-23T00:43:01.984Z,56.77
2022-08-23T00:46:07.459Z,57.07
2022-08-23T00:48:34.727Z,56.59
2022-08-23T00:51:21.424Z,56.69
2022-08-23T00:53:52.338Z,56.74
2022-08-23T00:56:22.628Z,56.80
2022-08-23T00:58:49.580Z,56.53
2022-08-23T01:01:17.729Z,56.78
2022-08-23T01:03:49.611Z,56.99
2022-08-23T01:06:36.839Z,57.07
2022-08-23T01:09:13.259Z,56.95
2022-08-23T01:11:48.298Z,57.51
2022-08-23T01:14:21.826Z,57.39
2022-08-23T01:17:05.588Z,56.80
2022-08-23T01:19:48.685Z,56.86
2022-08-23T01:22:24.428Z,57.25
2022-08-23T01:25:07.289Z,57.12
2022-08-23T01:27:35.889Z,57.02
2022-08-23T01:30:05.158Z,56.65
2022-08-23T01:32:33.634Z,56.95
2022-08-23T01:35:00.052Z,57.38
2022-08-23T01:37:26.786Z,57.39
2022-08-23T01:39:53.346Z,57.53
2022-08-23T01:42:20.139Z,57.24
2022-08-23T01:44:46.729Z,57.38
2022-08-23T01:47:13.277Z,57.52
2022-08-23T01:49:39.801Z,57.62
2022-08-23T01:52:06.471Z,57.51
2022-08-23T01:54:32.937Z,57.80
2022-08-23T01:56:59.508Z,57.78
2022-08-23T01:59:26.471Z,57.84
2022-08-23T02:01:53.642Z,58.08
2022-08-23T02:04:22.286Z,58.08
2022-08-23T02:06:48.826Z,58.45
2022-08-23T02:09:17.853Z,58.67
2022-08-23T02:11:46.295Z,58.33
2022-08-23T02:14:16.727Z,58.33
2022-08-23T02:17:02.783Z,58.56
2022-08-23T02:19:34.463Z,58.46
2022-08-23T02:22:01.288Z,58.21
2022-08-23T02:24:28.215Z,58.47
2022-08-23T02:26:59.500Z,58.73
2022-08-23T02:29:29.848Z,58.62
2022-08-23T02:31:58.149Z,58.43
2022-08-23T02:34:25.335Z,58.46
2022-08-23T02:36:54.710Z,58.65
2022-08-23T02:39:21.286Z,58.56
2022-08-23T02:41:47.905Z,58.68
2022-08-23T02:44:14.369Z,58.84
2022-08-23T02:46:42.009Z,59.09
2022-08-23T02:49:09.217Z,58.88
2022-08-23T02:51:35.677Z,58.63
2022-08-23T02:54:02.142Z,58.97
2022-08-23T02:56:28.684Z,58.80
2022-08-23T02:58:55.142Z,58.85
2022-08-23T03:01:33.598Z,58.85
2022-08-23T03:04:01.277Z,59.35
2022-08-23T03:06:28.221Z,58.96
2022-08-23T03:08:56.805Z,58.98
2022-08-23T03:11:24.940Z,58.71
2022-08-23T03:13:52.786Z,58.79
2022-08-23T03:16:19.765Z,58.90
2022-08-23T03:18:47.768Z,59.12
2022-08-23T03:21:17.638Z,58.93
2022-08-23T03:23:45.037Z,58.89
2022-08-23T03:26:13.421Z,59.05
2022-08-23T03:28:41.182Z,59.02
2022-08-23T03:31:09.110Z,59.24
2022-08-23T03:33:36.111Z,59.59
2022-08-23T03:36:06.273Z,59.63
2022-08-23T03:38:33.980Z,58.55
2022-08-23T03:41:01.201Z,59.30
2022-08-23T03:43:28.144Z,59.71
2022-08-23T03:45:54.589Z,59.91
2022-08-23T03:48:21.087Z,59.91
2022-08-23T03:50:47.629Z,60.15
2022-08-23T03:53:14.968Z,60.15
2022-08-23T03:55:43.140Z,59.98
2022-08-23T03:58:11.082Z,59.76
2022-08-23T04:00:37.985Z,59.75
2022-08-23T04:03:04.789Z,60.43
2022-08-23T04:05:31.266Z,60.29
2022-08-23T04:07:58.067Z,60.51
2022-08-23T04:10:25.210Z,60.32
2022-08-23T04:12:53.797Z,60.46
2022-08-23T04:15:20.447Z,60.43
2022-08-23T04:17:47.062Z,60.68
2022-08-23T04:20:13.683Z,60.66
2022-08-23T04:22:40.147Z,60.67
2022-08-23T04:25:10.118Z,60.86
2022-08-23T04:27:54.774Z,60.85
2022-08-23T04:30:21.258Z,61.09
2022-08-23T04:32:48.336Z,60.82
2022-08-23T04:35:15.517Z,60.97
2022-08-23T04:37:42.606Z,60.73
2022-08-23T04:40:29.447Z,60.86
2022-08-23T04:42:56.194Z,60.88
2022-08-23T04:45:22.657Z,61.65
2022-08-23T04:47:49.221Z,60.72
2022-08-23T04:50:16.825Z,60.67
2022-08-23T04:52:43.459Z,60.82
2022-08-23T04:55:10.066Z,60.98
2022-08-23T04:57:36.494Z,61.75
2022-08-23T05:00:05.610Z,61.00
2022-08-23T05:02:32.049Z,61.05
2022-08-23T05:04:58.469Z,60.10
2022-08-23T05:07:41.645Z,60.38
2022-08-23T05:10:13.088Z,61.10
2022-08-23T05:12:40.893Z,60.98
2022-08-23T05:15:09.467Z,60.62
2022-08-23T05:17:36.680Z,60.52
2022-08-23T05:20:04.166Z,60.63
2022-08-23T05:22:33.808Z,60.65
2022-08-23T05:25:00.379Z,59.96
2022-08-23T05:27:27.018Z,60.03
2022-08-23T05:29:54.400Z,60.08
2022-08-23T05:32:21.725Z,60.31
2022-08-23T05:34:48.902Z,59.91
2022-08-23T05:37:16.005Z,59.54
2022-08-23T05:39:43.228Z,59.85
2022-08-23T05:42:14.237Z,59.83
2022-08-23T05:44:40.836Z,59.78
2022-08-23T05:47:10.314Z,59.66
2022-08-23T05:49:37.648Z,59.52
2022-08-23T05:52:05.708Z,59.38
2022-08-23T05:54:32.606Z,59.05
2022-08-23T05:56:59.146Z,58.78
2022-08-23T05:59:25.612Z,58.68
2022-08-23T06:01:52.213Z,59.08
2022-08-23T06:04:18.862Z,58.89
2022-08-23T06:06:45.337Z,58.42
2022-08-23T06:09:15.598Z,58.65
2022-08-23T06:11:44.868Z,58.32
2022-08-23T06:14:11.940Z,57.88
2022-08-23T06:16:42.190Z,57.94
2022-08-23T06:19:09.683Z,57.82
2022-08-23T06:21:37.434Z,57.09
2022-08-23T06:24:04.218Z,56.77
2022-08-23T06:26:34.011Z,57.48
2022-08-23T06:29:02.895Z,57.14
2022-08-23T06:31:45.574Z,56.14
2022-08-23T06:34:18.718Z,56.60
2022-08-23T06:36:51.394Z,56.47
2022-08-23T06:39:19.254Z,55.82
2022-08-23T06:41:48.603Z,56.56
2022-08-23T06:44:16.087Z,56.81
2022-08-23T06:46:43.148Z,55.17
2022-08-23T06:49:10.038Z,55.34
2022-08-23T06:51:40.898Z,55.19
2022-08-23T06:54:10.381Z,55.43
2022-08-23T06:56:40.480Z,54.90
2022-08-23T06:59:07.411Z,55.00
2022-08-23T07:01:49.552Z,54.08
2022-08-23T07:04:22.265Z,53.82
2022-08-23T07:06:48.907Z,53.46
2022-08-23T07:09:15.923Z,52.86
2022-08-23T07:11:42.709Z,53.21
2022-08-23T07:14:12.605Z,52.72
2022-08-23T07:16:43.289Z,52.00
2022-08-23T07:19:10.241Z,51.92
2022-08-23T07:21:37.186Z,52.19
2022-08-23T07:24:04.783Z,52.03
2022-08-23T07:26:31.573Z,52.89
2022-08-23T07:28:58.239Z,51.88
2022-08-23T07:31:28.393Z,51.47
2022-08-23T07:33:58.910Z,52.01
2022-08-23T07:36:28.002Z,51.01
2022-08-23T07:38:55.776Z,50.85
2022-08-23T07:41:31.080Z,50.60
2022-08-23T07:44:02.242Z,51.53
2022-08-23T07:46:31.934Z,50.55
2022-08-23T07:49:00.483Z,50.73
2022-08-23T07:51:29.210Z,51.32
2022-08-23T07:53:55.787Z,51.24
2022-08-23T07:56:22.506Z,50.30
2022-08-23T07:58:50.071Z,50.42
2022-08-23T08:01:28.138Z,48.91
2022-08-23T08:03:57.972Z,47.75
2022-08-23T08:06:28.222Z,47.43
2022-08-23T08:08:55.704Z,47.19
2022-08-23T08:11:24.371Z,47.00
2022-08-23T08:13:51.978Z,47.52
2022-08-23T08:16:31.166Z,47.71
2022-08-23T08:18:59.943Z,46.91
2022-08-23T08:21:28.020Z,46.99
2022-08-23T08:23:57.589Z,47.81
2022-08-23T08:26:25.108Z,47.36
2022-08-23T08:28:52.435Z,47.35
2022-08-23T08:31:19.279Z,47.47
2022-08-23T08:33:46.046Z,47.22
2022-08-23T08:36:53.669Z,46.95
2022-08-23T08:39:24.162Z,45.34
2022-08-23T08:42:07.185Z,45.34
2022-08-23T08:44:46.471Z,45.87
2022-08-23T08:47:34.347Z,45.29
2022-08-23T08:50:03.902Z,45.21
2022-08-23T08:52:36.807Z,44.81
2022-08-23T08:55:18.055Z,45.48
2022-08-23T08:57:47.292Z,43.99
2022-08-23T09:00:17.521Z,44.19
2022-08-23T09:02:45.196Z,44.57
2022-08-23T09:05:16.822Z,44.94
2022-08-23T09:08:02.197Z,44.70
2022-08-23T09:11:12.431Z,45.75
2022-08-23T09:13:57.142Z,44.75
2022-08-23T09:17:02.395Z,44.47
2022-08-23T09:19:33.372Z,44.68
2022-08-23T09:22:06.853Z,44.57
2022-08-23T09:24:33.375Z,43.06
2022-08-23T09:26:59.824Z,43.30
2022-08-23T09:29:32.044Z,42.93
2022-08-23T09:32:04.330Z,41.94
2022-08-23T09:34:30.729Z,41.28
2022-08-23T09:37:17.949Z,39.99
2022-08-23T09:40:07.751Z,39.39
2022-08-23T09:42:37.729Z,39.77
2022-08-23T09:45:24.072Z,38.98
2022-08-23T09:47:50.698Z,38.97
2022-08-23T09:50:29.323Z,38.57
2022-08-23T09:53:04.447Z,37.46
2022-08-23T09:55:38.851Z,37.39
2022-08-23T09:58:23.499Z,36.57
2022-08-23T10:01:08.144Z,37.16
2022-08-23T10:03:34.710Z,36.36
2022-08-23T10:06:02.129Z,34.80
2022-08-23T10:08:33.196Z,34.19
2022-08-23T10:11:16.473Z,35.10
2022-08-23T10:13:44.680Z,33.54
2022-08-23T10:16:46.171Z,33.66
2022-08-23T10:19:23.021Z,33.47
2022-08-23T10:21:57.506Z,33.50
2022-08-23T10:24:33.932Z,33.34
2022-08-23T10:27:39.713Z,32.61
2022-08-23T10:30:13.051Z,33.82
2022-08-23T10:32:46.029Z,32.74
2022-08-23T10:35:18.538Z,31.87
2022-08-23T10:38:19.582Z,31.66
2022-08-23T10:40:52.628Z,32.59
2022-08-23T10:43:45.889Z,32.03
2022-08-23T10:46:13.129Z,31.16
2022-08-23T10:48:53.811Z,31.93
2022-08-23T10:51:43.667Z,32.64
2022-08-23T10:54:16.182Z,31.95
2022-08-23T10:56:48.871Z,31.35
2022-08-23T10:59:23.876Z,31.47
2022-08-23T11:02:42.563Z,32.21
2022-08-23T11:05:30.034Z,31.00
2022-08-23T11:08:01.567Z,30.88
2022-08-23T11:10:34.884Z,30.47
2022-08-23T11:13:27.136Z,30.97
2022-08-23T11:16:06.919Z,30.53
2022-08-23T11:18:44.046Z,30.48
2022-08-23T11:21:10.448Z,29.46
2022-08-23T11:23:46.017Z,30.58
2022-08-23T11:26:53.195Z,29.83
2022-08-23T11:29:23.314Z,30.09
2022-08-23T11:32:02.023Z,30.35
2022-08-23T11:34:34.882Z,29.97
2022-08-23T11:37:19.615Z,29.86
2022-08-23T11:39:58.279Z,29.12
2022-08-23T11:42:43.946Z,28.53
2022-08-23T11:45:30.705Z,29.34
2022-08-23T11:48:12.067Z,29.13
2022-08-23T11:50:57.789Z,28.44
2022-08-23T11:53:36.865Z,28.21
2022-08-23T11:56:32.915Z,27.34
2022-08-23T11:59:08.821Z,27.10
2022-08-23T12:01:38.848Z,27.76
2022-08-23T12:04:11.613Z,27.69
2022-08-23T12:06:51.175Z,27.17
2022-08-23T12:09:20.933Z,26.97
2022-08-23T12:11:56.545Z,26.25
2022-08-23T12:14:31.988Z,26.20
2022-08-23T12:17:20.306Z,27.16
2022-08-23T12:19:57.653Z,27.69
2022-08-23T12:22:30.343Z,26.99
2022-08-23T12:25:03.983Z,26.62
2022-08-23T12:27:42.792Z,27.03
2022-08-23T12:30:24.807Z,27.18
2022-08-23T12:33:03.969Z,25.93
2022-08-23T12:36:05.160Z,26.59
2022-08-23T12:39:02.121Z,26.08
2022-08-23T12:41:33.256Z,25.98
2022-08-23T12:44:09.757Z,26.60
2022-08-23T12:46:42.296Z,25.23
2022-08-23T12:49:21.807Z,26.00
2022-08-23T12:51:50.004Z,26.25
2022-08-23T12:54:20.835Z,26.00
2022-08-23T12:56:50.059Z,25.11
2022-08-23T12:59:39.731Z,26.17
2022-08-23T13:02:12.232Z,24.59
2022-08-23T13:04:40.591Z,25.33
2022-08-23T13:07:12.247Z,26.13
2022-08-23T13:09:42.373Z,25.08
2022-08-23T13:12:12.778Z,26.20
2022-08-23T13:14:48.422Z,25.75
2022-08-23T13:17:26.844Z,25.45
2022-08-23T13:20:15.291Z,25.54
2022-08-23T13:23:03.863Z,25.64
2022-08-23T13:25:34.305Z,26.14
2022-08-23T13:28:26.302Z,26.45
2022-08-23T13:31:05.076Z,25.78
2022-08-23T13:33:31.811Z,25.23
2022-08-23T13:36:13.442Z,24.75
2022-08-23T13:38:41.851Z,24.89
2022-08-23T13:41:13.713Z,24.66
2022-08-23T13:43:43.240Z,24.95
2022-08-23T13:46:22.645Z,25.80
2022-08-23T13:48:57.809Z,24.92
2022-08-23T13:51:31.550Z,24.36
2022-08-23T13:54:03.529Z,25.76
2022-08-23T13:56:34.175Z,24.29
2022-08-23T13:59:07.657Z,24.47
2022-08-23T14:01:34.737Z,24.58
2022-08-23T14:04:01.223Z,23.78
2022-08-23T14:06:27.732Z,23.28
2022-08-23T14:08:54.203Z,23.06
2022-08-23T14:11:20.903Z,23.64
2022-08-23T14:13:48.979Z,25.07
2022-08-23T14:16:40.720Z,24.19
2022-08-23T14:19:54.381Z,24.79
2022-08-23T14:21:56.463Z,23.88
2022-08-23T14:24:22.889Z,24.37
2022-08-23T14:26:52.323Z,23.51
2022-08-23T14:29:23.912Z,23.38
2022-08-23T14:31:51.959Z,23.96
2022-08-23T14:34:18.749Z,23.88
2022-08-23T14:39:31.741Z,24.15
2022-08-23T14:41:58.591Z,24.85
2022-08-23T14:44:27.926Z,24.26
2022-08-23T14:46:56.834Z,25.38
2022-08-23T14:49:23.311Z,23.88
2022-08-23T14:51:50.546Z,25.52
2022-08-23T14:54:23.791Z,24.31
2022-08-23T14:56:50.718Z,25.17
2022-08-23T14:59:17.230Z,24.88
2022-08-23T15:01:44.201Z,23.99
2022-08-23T15:04:11.664Z,24.59
2022-08-23T15:06:54.908Z,24.26
2022-08-23T15:09:27.296Z,23.92
2022-08-23T15:14:41.407Z,23.78
2022-08-23T15:17:07.860Z,24.05
2022-08-23T15:19:34.311Z,23.76
2022-08-23T15:22:06.496Z,24.16
2022-08-23T15:24:45.363Z,24.12
2022-08-23T15:27:12.449Z,23.57
2022-08-23T15:29:39.053Z,23.28
2022-08-23T15:32:05.666Z,22.42
2022-08-23T15:34:35.427Z,22.99
2022-08-23T15:37:02.017Z,23.97
2022-08-23T15:39:28.777Z,23.70
2022-08-23T15:41:55.263Z,24.55
2022-08-23T15:44:21.707Z,24.42
2022-08-23T15:46:48.598Z,24.38
2022-08-23T15:49:18.205Z,24.54
2022-08-23T15:51:45.640Z,24.08
2022-08-23T15:54:12.248Z,24.27
2022-08-23T15:56:44.505Z,24.48
2022-08-23T15:59:13.595Z,24.42
2022-08-23T16:01:40.557Z,24.20
2022-08-23T16:04:07.120Z,24.76
2022-08-23T16:06:36.632Z,24.43
2022-08-23T16:09:05.378Z,24.54
2022-08-23T16:11:31.891Z,24.30
2022-08-23T16:13:59.109Z,24.92
2022-08-23T16:16:30.242Z,24.42
2022-08-23T16:18:58.287Z,25.13
2022-08-23T16:21:27.331Z,25.28
2022-08-23T16:23:55.048Z,24.42
2022-08-23T16:26:34.506Z,24.61
2022-08-23T16:29:03.731Z,24.57
2022-08-23T16:31:39.098Z,24.89
2022-08-23T16:34:08.297Z,24.09
2022-08-23T16:36:34.912Z,24.48
2022-08-23T16:39:01.409Z,23.90
2022-08-23T16:41:28.062Z,25.17
2022-08-23T16:43:54.492Z,24.86
2022-08-23T16:46:22.146Z,24.61
2022-08-23T16:48:49.002Z,25.56
2022-08-23T16:51:16.771Z,25.41
2022-08-23T16:53:43.670Z,25.31
2022-08-23T16:56:21.209Z,26.15
2022-08-23T16:58:47.646Z,25.31
2022-08-23T17:01:19.692Z,26.34
2022-08-23T17:03:46.541Z,25.66
2022-08-23T17:06:13.453Z,26.30
2022-08-23T17:08:40.005Z,26.52
2022-08-23T17:11:11.102Z,25.99
2022-08-23T17:13:37.528Z,26.37
2022-08-23T17:16:04.185Z,26.23
2022-08-23T17:18:31.294Z,26.46
2022-08-23T17:20:58.041Z,26.52
2022-08-23T17:23:24.451Z,26.84
2022-08-23T17:25:50.875Z,26.76
2022-08-23T17:28:18.106Z,26.37
2022-08-23T17:30:44.700Z,27.02
2022-08-23T17:33:11.287Z,27.55
2022-08-23T17:35:39.533Z,27.95
2022-08-23T17:38:06.537Z,29.21
2022-08-23T17:40:39.858Z,28.50
2022-08-23T17:43:07.377Z,28.92
2022-08-23T17:45:49.205Z,29.03
2022-08-23T17:48:17.559Z,29.70
2022-08-23T17:50:44.875Z,29.92
2022-08-23T17:53:14.279Z,30.00
2022-08-23T17:55:41.608Z,29.89
2022-08-23T17:58:10.183Z,31.27
2022-08-23T18:00:39.022Z,32.16
2022-08-23T18:03:06.263Z,31.35
2022-08-23T18:05:34.148Z,32.36
2022-08-23T18:08:01.178Z,33.27
2022-08-23T18:10:29.993Z,33.73
2022-08-23T18:12:57.961Z,33.82
2022-08-23T18:15:24.567Z,34.35
2022-08-23T18:17:51.749Z,35.46
2022-08-23T18:20:23.170Z,35.05
2022-08-23T18:22:49.716Z,35.81
2022-08-23T18:25:17.050Z,36.45
2022-08-23T18:28:03.025Z,37.25
2022-08-23T18:30:29.840Z,37.80
2022-08-23T18:32:57.650Z,37.96
2022-08-23T18:35:26.015Z,38.66
2022-08-23T18:37:53.156Z,38.12
2022-08-23T18:40:19.853Z,39.23
2022-08-23T18:42:46.458Z,39.06
2022-08-23T18:45:14.140Z,39.44
2022-08-23T18:47:40.721Z,39.78
2022-08-23T18:50:09.562Z,39.86
2022-08-23T18:52:36.261Z,40.95
2022-08-23T18:55:03.194Z,41.44
2022-08-23T18:57:29.761Z,42.60
2022-08-23T18:59:56.294Z,42.70
2022-08-23T19:02:24.319Z,42.57
2022-08-23T19:04:53.072Z,44.40
2022-08-23T19:07:19.770Z,44.42
2022-08-23T19:09:46.211Z,43.61
2022-08-23T19:12:12.733Z,43.45
2022-08-23T19:14:39.154Z,44.01
2022-08-23T19:17:08.002Z,44.68
2022-08-23T19:19:35.082Z,44.76
2022-08-23T19:22:01.546Z,45.33
2022-08-23T19:24:28.644Z,45.74
2022-08-23T19:26:55.739Z,45.00
2022-08-23T19:29:22.241Z,44.78
2022-08-23T19:31:50.162Z,45.76
2022-08-23T19:34:19.834Z,45.52
2022-08-23T19:36:51.287Z,45.26
2022-08-23T19:39:26.004Z,45.76
2022-08-23T19:41:53.111Z,45.68
2022-08-23T19:44:20.041Z,45.76
2022-08-23T19:46:46.587Z,45.60
2022-08-23T19:49:14.839Z,45.61
2022-08-23T19:51:42.108Z,46.27
2022-08-23T19:54:11.572Z,46.35
2022-08-23T19:56:44.686Z,46.58
2022-08-23T19:59:15.845Z,46.81
2022-08-23T20:01:42.544Z,46.72
2022-08-23T20:04:09.179Z,47.98
2022-08-23T20:06:35.725Z,46.79
2022-08-23T20:09:02.376Z,46.89
2022-08-23T20:11:29.535Z,47.48
2022-08-23T20:13:56.732Z,47.06
2022-08-23T20:16:23.937Z,47.68
2022-08-23T20:18:51.457Z,48.04
2022-08-23T20:21:17.963Z,47.67
2022-08-23T20:24:03.262Z,47.34
2022-08-23T20:26:40.541Z,46.88
2022-08-23T20:29:10.206Z,47.53
2022-08-23T20:31:46.026Z,47.82
2022-08-23T20:34:12.632Z,48.16
2022-08-23T20:36:39.090Z,48.28
2022-08-23T20:39:05.745Z,47.80
2022-08-23T20:41:34.432Z,47.99
2022-08-23T20:44:02.158Z,47.91
2022-08-23T20:46:28.815Z,47.99
2022-08-23T20:48:57.631Z,48.55
2022-08-23T20:51:25.358Z,48.73
2022-08-23T20:53:51.914Z,48.48
2022-08-23T20:56:20.278Z,48.28
2022-08-23T20:58:47.447Z,48.32
2022-08-23T21:01:16.008Z,48.59
2022-08-23T21:03:43.150Z,48.94
2022-08-23T21:06:29.413Z,48.56
2022-08-23T21:08:58.957Z,48.90
2022-08-23T21:11:28.212Z,49.98
2022-08-23T21:13:56.130Z,50.46
2022-08-23T21:16:23.556Z,50.21
2022-08-23T21:18:50.292Z,50.22
2022-08-23T21:23:48.163Z,50.12
2022-08-23T21:26:14.777Z,50.97
2022-08-23T21:28:41.827Z,50.56
2022-08-23T21:31:11.841Z,50.31
2022-08-23T21:33:40.300Z,48.22
2022-08-23T21:36:07.969Z,50.64
2022-08-23T21:38:34.605Z,50.57
2022-08-23T21:41:05.051Z,50.81
2022-08-23T21:43:33.261Z,50.67
2022-08-23T21:46:00.049Z,50.96
2022-08-23T21:48:26.891Z,50.59
2022-08-23T21:50:53.361Z,50.66
2022-08-23T21:53:20.152Z,50.81
2022-08-23T21:55:46.634Z,50.81
2022-08-23T21:58:13.624Z,50.76
2022-08-23T22:00:41.410Z,50.58
2022-08-23T22:03:09.000Z,50.74
2022-08-23T22:05:42.909Z,50.53
2022-08-23T22:08:09.617Z,50.98
2022-08-23T22:10:48.183Z,50.95
2022-08-23T22:13:25.046Z,51.21
2022-08-23T22:15:51.546Z,50.88
2022-08-23T22:18:18.339Z,51.25
2022-08-23T22:20:44.879Z,51.15
2022-08-23T22:23:11.549Z,50.80
2022-08-23T22:25:38.191Z,51.00
2022-08-23T22:28:04.760Z,51.16
2022-08-23T22:30:32.161Z,51.41
2022-08-23T22:32:58.583Z,51.40
2022-08-23T22:35:25.235Z,51.39
2022-08-23T22:38:12.356Z,51.95
2022-08-23T22:40:39.406Z,51.47
2022-08-23T22:43:05.887Z,51.96
2022-08-23T22:45:32.303Z,51.86
2022-08-23T22:47:58.977Z,51.84
2022-08-23T22:50:25.595Z,52.23
2022-08-23T22:52:52.057Z,52.48
2022-08-23T22:55:18.555Z,52.95
2022-08-23T22:57:45.056Z,53.04
2022-08-23T23:00:11.979Z,52.31
2022-08-23T23:02:38.980Z,52.51
2022-08-23T23:05:07.946Z,53.02
2022-08-23T23:07:53.273Z,53.08
2022-08-23T23:10:19.754Z,53.42
2022-08-23T23:12:46.359Z,53.70
2022-08-23T23:15:13.061Z,53.33
2022-08-23T23:17:39.691Z,53.99
2022-08-23T23:20:25.306Z,53.74
2022-08-23T23:22:51.890Z,53.55
2022-08-23T23:25:18.923Z,53.82
2022-08-23T23:27:45.851Z,53.71
2022-08-23T23:30:12.897Z,54.00
2022-08-23T23:32:39.402Z,54.57
2022-08-23T23:35:08.637Z,53.74
2022-08-23T23:37:35.468Z,53.61
2022-08-23T23:40:02.121Z,53.64
2022-08-23T23:42:28.606Z,53.74
2022-08-23T23:44:55.089Z,54.31
2022-08-23T23:47:21.509Z,53.79
2022-08-23T23:49:50.533Z,53.91
2022-08-23T23:52:17.048Z,53.36
2022-08-23T23:54:43.740Z,53.60
2022-08-23T23:57:10.149Z,53.47
2022-08-23T23:59:36.877Z,54.27
